PWSweather.com
Personal Weather Stations
Station Observations
KMIEASTT1
Tawas Bay, East Tawas, MI 48730

Tawas BayEast Tawas, MI 48730

Lat: 44.28, Lon: -83.48

Elevation: 600

Station Type: Davis VantagePro

http://www.tawasbayweather.com

Latest ConditionsUpdated 8:15:10 AM EDT Thursday, Jun 29, 2017
Currently Today's Max Today's Min Today's Average
Temperature 59.5°F15.3°C 62.2°F16.8°C 58.6°F14.8°C 60.2°F15.7°C
Dew Point 58.9°F14.9°C 60.8°F16.0°C 57.2°F14.0°C 58.4°F14.7°C
Winds 3.0 mph S4.8 kmh S 13.0 mph S20.9 kmh S - 5.5 mph 8.9 kmh
Wind Gusts 6.0 mph9.7 kmh 17.0 mph27.4 kmh - -
Humidity 98% 98% 91% 94%
Pressure 29.76 in1007.8 mb 29.87 in1011.5 mb 29.75 in1007.5 mb -
Hour Temp Dew Point Humidity Winds Wind Gusts Pressure Precip Precip Rate Daily Precip Total
08:15 AM 59.5°F15.3°C 58.9°F14.9°C 98% 3.0 mph S4.8 kmh S 6.0 mph9.7 kmh 29.76 in1007.8 mb 0.00 in0.0 mm 0.00 in0.0 mm 0.07 in1.8 mm
08:00 AM 58.8°F14.9°C 58.0°F14.4°C 97% 4.0 mph SSE6.4 kmh SSE 4.0 mph6.4 kmh 29.76 in1007.8 mb 0.00 in0.0 mm 0.00 in0.0 mm 0.07 in1.8 mm
07:45 AM 58.6°F14.8°C 57.8°F14.3°C 97% 2.0 mph SSE3.2 kmh SSE 3.0 mph4.8 kmh 29.77 in1008.1 mb 0.01 in0.3 mm 0.00 in0.0 mm 0.07 in1.8 mm
07:30 AM 59.1°F15.1°C 58.0°F14.4°C 96% 1.0 mph ESE1.6 kmh ESE 2.0 mph3.2 kmh 29.76 in1007.8 mb 0.01 in0.3 mm 0.00 in0.0 mm 0.07 in1.8 mm
07:15 AM 59.4°F15.2°C 58.3°F14.6°C 96% 2.0 mph ESE3.2 kmh ESE 4.0 mph6.4 kmh 29.75 in1007.5 mb 0.04 in1.0 mm 0.00 in0.0 mm 0.07 in1.8 mm
07:00 AM 60.2°F15.7°C 58.8°F14.9°C 95% 5.0 mph E8.0 kmh E 6.0 mph9.7 kmh 29.75 in1007.5 mb 0.04 in1.0 mm 0.00 in0.0 mm 0.07 in1.8 mm
06:45 AM 61.3°F16.3°C 59.9°F15.5°C 95% Calm Calm 2.0 mph3.2 kmh 29.76 in1007.8 mb 0.04 in1.0 mm 0.04 in1.0 mm 0.07 in1.8 mm
06:30 AM 61.8°F16.6°C 60.4°F15.8°C 95% 5.0 mph SW8.0 kmh SW 7.0 mph11.3 kmh 29.76 in1007.8 mb 0.03 in0.8 mm 0.04 in1.0 mm 0.06 in1.5 mm
06:16 AM 62.2°F16.8°C 60.8°F16.0°C 95% 6.0 mph SW9.7 kmh SW 11.0 mph17.7 kmh 29.77 in1008.1 mb 0.02 in0.5 mm 0.09 in2.3 mm 0.05 in1.3 mm
06:02 AM 62.0°F16.7°C 60.3°F15.7°C 94% 7.0 mph SW11.3 kmh SW 9.0 mph14.5 kmh 29.77 in1008.1 mb 0.00 in0.0 mm 0.00 in0.0 mm 0.03 in0.8 mm
05:46 AM 62.0°F16.7°C 60.6°F15.9°C 95% 6.0 mph SW9.7 kmh SW 8.0 mph12.9 kmh 29.78 in1008.5 mb 0.00 in0.0 mm 0.00 in0.0 mm 0.03 in0.8 mm
05:32 AM 60.5°F15.8°C 59.1°F15.1°C 95% 5.0 mph SSW8.0 kmh SSW 6.0 mph9.7 kmh 29.77 in1008.1 mb 0.00 in0.0 mm 0.00 in0.0 mm 0.03 in0.8 mm
05:16 AM 59.7°F15.4°C 58.0°F14.4°C 94% 3.0 mph S4.8 kmh S 5.0 mph8.0 kmh 29.76 in1007.8 mb 0.00 in0.0 mm 0.00 in0.0 mm 0.03 in0.8 mm
05:01 AM 60.5°F15.8°C 58.5°F14.7°C 93% 2.0 mph SSE3.2 kmh SSE 5.0 mph8.0 kmh 29.75 in1007.5 mb 0.00 in0.0 mm 0.00 in0.0 mm 0.03 in0.8 mm
04:45 AM 61.7°F16.5°C 59.4°F15.2°C 92% 4.0 mph S6.4 kmh S 9.0 mph14.5 kmh 29.75 in1007.5 mb 0.00 in0.0 mm 0.00 in0.0 mm 0.03 in0.8 mm
04:32 AM 61.7°F16.5°C 59.7°F15.4°C 93% 7.0 mph SW11.3 kmh SW 8.0 mph12.9 kmh 29.75 in1007.5 mb 0.00 in0.0 mm 0.00 in0.0 mm 0.03 in0.8 mm
04:15 AM 59.3°F15.2°C 57.3°F14.1°C 93% 4.0 mph S6.4 kmh S 5.0 mph8.0 kmh 29.76 in1007.8 mb 0.00 in0.0 mm 0.00 in0.0 mm 0.03 in0.8 mm
04:03 AM 59.5°F15.3°C 57.2°F14.0°C 92% 4.0 mph SSE6.4 kmh SSE 4.0 mph6.4 kmh 29.76 in1007.8 mb 0.00 in0.0 mm 0.00 in0.0 mm 0.03 in0.8 mm
03:46 AM 59.9°F15.5°C 57.6°F14.2°C 92% 4.0 mph S6.4 kmh S 5.0 mph8.0 kmh 29.78 in1008.5 mb 0.00 in0.0 mm 0.00 in0.0 mm 0.03 in0.8 mm
03:32 AM 60.0°F15.6°C 57.4°F14.1°C 91% 3.0 mph S4.8 kmh S 7.0 mph11.3 kmh 29.78 in1008.5 mb 0.00 in0.0 mm 0.00 in0.0 mm 0.03 in0.8 mm
03:16 AM 60.1°F15.6°C 57.5°F14.2°C 91% 4.0 mph SW6.4 kmh SW 9.0 mph14.5 kmh 29.78 in1008.5 mb 0.00 in0.0 mm 0.00 in0.0 mm 0.03 in0.8 mm
03:01 AM 59.9°F15.5°C 57.6°F14.2°C 92% 5.0 mph SSW8.0 kmh SSW 7.0 mph11.3 kmh 29.77 in1008.1 mb 0.00 in0.0 mm 0.00 in0.0 mm 0.03 in0.8 mm
02:45 AM 60.1°F15.6°C 57.8°F14.3°C 92% 4.0 mph S6.4 kmh S 12.0 mph19.3 kmh 29.77 in1008.1 mb 0.00 in0.0 mm 0.00 in0.0 mm 0.03 in0.8 mm
02:31 AM 60.4°F15.8°C 58.1°F14.5°C 92% 9.0 mph SE14.5 kmh SE 12.0 mph19.3 kmh 29.77 in1008.1 mb 0.00 in0.0 mm 0.00 in0.0 mm 0.03 in0.8 mm
02:15 AM 60.4°F15.8°C 58.1°F14.5°C 92% 8.0 mph SSE12.9 kmh SSE 13.0 mph20.9 kmh 29.78 in1008.5 mb 0.03 in0.8 mm 0.00 in0.0 mm 0.03 in0.8 mm
02:02 AM 60.4°F15.8°C 58.1°F14.5°C 92% 13.0 mph SE20.9 kmh SE 17.0 mph27.4 kmh 29.80 in1009.1 mb 0.03 in0.8 mm 0.00 in0.0 mm 0.03 in0.8 mm
01:45 AM 60.4°F15.8°C 58.4°F14.7°C 93% 13.0 mph S20.9 kmh S 14.0 mph22.5 kmh 29.81 in1009.5 mb 0.03 in0.8 mm 0.00 in0.0 mm 0.03 in0.8 mm
01:31 AM 59.3°F15.2°C 57.6°F14.2°C 94% 10.0 mph S16.1 kmh S 10.0 mph16.1 kmh 29.82 in1009.8 mb 0.03 in0.8 mm 0.04 in1.0 mm 0.03 in0.8 mm
01:15 AM 59.1°F15.1°C 57.4°F14.1°C 94% 6.0 mph S9.7 kmh S 10.0 mph16.1 kmh 29.84 in1010.5 mb 0.02 in0.5 mm 0.05 in1.3 mm 0.02 in0.5 mm
01:02 AM 59.8°F15.4°C 57.8°F14.3°C 93% 7.0 mph SSW11.3 kmh SSW 14.0 mph22.5 kmh 29.86 in1011.2 mb 0.01 in0.3 mm 0.01 in0.3 mm 0.01 in0.3 mm
12:46 AM 59.7°F15.4°C 57.7°F14.3°C 93% 7.0 mph SSE11.3 kmh SSE 10.0 mph16.1 kmh 29.86 in1011.2 mb 0.00 in0.0 mm 0.00 in0.0 mm 0.00 in0.0 mm
12:31 AM 59.6°F15.3°C 57.6°F14.2°C 93% 8.0 mph S12.9 kmh S 12.0 mph19.3 kmh 29.86 in1011.2 mb 0.00 in0.0 mm 0.00 in0.0 mm 0.00 in0.0 mm
12:15 AM 59.8°F15.4°C 57.8°F14.3°C 93% 9.0 mph SE14.5 kmh SE 11.0 mph17.7 kmh 29.86 in1011.2 mb 0.00 in0.0 mm 0.00 in0.0 mm 0.00 in0.0 mm
12:02 AM 59.9°F15.5°C 58.2°F14.6°C 94% 7.0 mph SE11.3 kmh SE 10.0 mph16.1 kmh 29.87 in1011.5 mb 0.00 in0.0 mm 0.00 in0.0 mm 0.00 in0.0 mm